Zaporizhzhia, Ukraine
Current Conditions -  °F | °C
As of 8:00 PM on Sunday 23 Nov 2014 (Local Time) from UKDE Reporting Station
Clear Clear  
Wind Chill: 11°   Ceiling: Unl
Heat Index: 19°   Visibility: 6mi
Dew Point: 16°   Wind: 7mph
Humidity: 86%   Direction: 20°NNE
Pressure: 30.42"   Gusts: NA
Location:  47.85°N, 35.16°E
Report Text: UKDE 231700Z 02003MPS CAVOK M07/M09 Q1030 02710370 NOSIG
Loading
Personal Weather Stations






























Interactive Weather Map New forecast layout! Learn more

10-Day Weather Forecast

Advertisements
Track Severe Weather on mobile